Time;durP1;ratioP1;P1;durP2;ratioP2;P2;SDS_P1;SDS_P2;PMS_P1;PMS_P2;Temp;Humidity;BMP_temperature;BMP_pressure;BME280_temperature;BME280_humidity;BME280_pressure;Samples;Min_cycle;Max_cycle;Signal;HPM_P1;HPM_P2
2022/10/03 00:00:44;;;;;;;;;;;;;;;;;;5061209;28;19920;-67
2022/10/03 00:03:09;;;;;;;;;;;;;;;;;;5064778;28;19916;-67
2022/10/03 00:05:35;;;;;;;;;;;;;;;;;;5063199;28;19958;-68
2022/10/03 00:08:00;;;;;;;;;;;;;;;;;;5063594;28;20303;-67
2022/10/03 00:10:25;;;;;;;;;;;;;;;;;;5063742;28;19921;-67
2022/10/03 00:12:50;;;;;;;;;;;;;;;;;;5057410;28;19935;-68
2022/10/03 00:15:15;;;;;;;;;;;;;;;;;;5060837;28;20487;-68
2022/10/03 00:17:40;;;;;;;;;;;;;;;;;;5061527;28;19916;-67
2022/10/03 00:20:05;;;;;;;;;;;;;;;;;;5066116;28;19913;-67
2022/10/03 00:22:31;;;;;;;;;;;;;;;;;;5064405;28;19982;-67
2022/10/03 00:24:56;;;;;;;;;;;;;;;;;;5065381;28;19913;-67
2022/10/03 00:27:21;;;;;;;;;;;;;;;;;;5064877;28;19967;-67
2022/10/03 00:29:46;;;;;;;;;;;;;;;;;;5066682;28;19912;-68
2022/10/03 00:32:11;;;;;;;;;;;;;;;;;;5069690;28;19913;-68
2022/10/03 00:34:36;;;;;;;;;;;;;;;;;;5065689;28;19916;-68
2022/10/03 00:37:02;;;;;;;;;;;;;;;;;;5065444;28;19966;-68
2022/10/03 00:39:27;;;;;;;;;;;;;;;;;;5068452;28;20016;-68
2022/10/03 00:41:52;;;;;;;;;;;;;;;;;;5071178;28;19916;-68
2022/10/03 00:44:17;;;;;;;;;;;;;;;;;;5068124;28;19924;-67
2022/10/03 00:46:43;;;;;;;;;;;;;;;;;;5066118;28;19939;-67
2022/10/03 00:49:08;;;;;;;;;;;;;;;;;;5070380;28;19926;-67
2022/10/03 00:51:33;;;;;;;;;;;;;;;;;;5068485;28;19912;-67
2022/10/03 00:53:58;;;;;;;;;;;;;;;;;;5069425;28;20629;-67
2022/10/03 00:56:23;;;;;;;;;;;;;;;;;;5060797;28;19939;-67
2022/10/03 00:58:48;;;;;;;;;;;;;;;;;;5069443;28;19919;-67
2022/10/03 01:01:13;;;;;;;;;;;;;;;;;;5069717;28;19920;-68
2022/10/03 01:03:39;;;;;;;;;;;;;;;;;;5067681;28;19928;-68
2022/10/03 01:06:04;;;;;;;;;;;;;;;;;;5066248;28;19916;-68
2022/10/03 01:08:30;;;;;;;;;;;;;;;;;;5071952;28;20332;-68
2022/10/03 01:10:55;;;;;;;;;;;;;;;;;;5070048;28;20571;-68
2022/10/03 01:13:20;;;;;;;;;;;;;;;;;;5070744;28;19915;-68
2022/10/03 01:15:46;;;;;;;;;;;;;;;;;;5064958;28;19978;-68
2022/10/03 01:18:11;;;;;;;;;;;;;;;;;;5071275;28;19916;-67
2022/10/03 01:20:36;;;;;;;;;;;;;;;;;;5072229;28;19999;-67
2022/10/03 01:23:01;;;;;;;;;;;;;;;;;;5073509;28;20030;-67
2022/10/03 01:25:26;;;;;;;;;;;;;;;;;;5065279;28;19931;-67
2022/10/03 01:30:35;;;;;;;;;;;;;;;;;;5067887;28;20013;-67
2022/10/03 01:33:01;;;;;;;;;;;;;;;;;;5072509;28;19936;-68
2022/10/03 01:35:27;;;;;;;;;;;;;;;;;;5069796;28;20371;-68
2022/10/03 01:37:52;;;;;;;;;;;;;;;;;;5070024;28;19928;-67
2022/10/03 01:40:17;;;;;;;;;;;;;;;;;;5069523;28;20321;-67
2022/10/03 01:42:42;;;;;;;;;;;;;;;;;;5070254;28;19916;-67
2022/10/03 01:45:11;;;;;;;;;;;;;;;;;;5068371;28;19923;-67
2022/10/03 01:47:37;;;;;;;;;;;;;;;;;;5065648;28;19913;-68
2022/10/03 01:50:02;;;;;;;;;;;;;;;;;;5069448;28;19913;-68
2022/10/03 01:52:27;;;;;;;;;;;;;;;;;;5073978;28;19920;-68
2022/10/03 01:54:52;;;;;;;;;;;;;;;;;;5063986;28;19919;-67
2022/10/03 01:57:17;;;;;;;;;;;;;;;;;;5068254;28;20312;-68
2022/10/03 01:59:42;;;;;;;;;;;;;;;;;;5072318;28;20331;-68
2022/10/03 02:02:07;;;;;;;;;;;;;;;;;;5066861;28;20375;-67
2022/10/03 02:04:33;;;;;;;;;;;;;;;;;;5071926;28;19995;-67
2022/10/03 02:06:58;;;;;;;;;;;;;;;;;;5068836;28;20011;-68
2022/10/03 02:09:23;;;;;;;;;;;;;;;;;;5062754;28;19952;-68
2022/10/03 02:11:49;;;;;;;;;;;;;;;;;;5064943;28;19925;-67
2022/10/03 02:14:14;;;;;;;;;;;;;;;;;;5069378;28;19939;-68
2022/10/03 02:16:41;;;;;;;;;;;;;;;;;;5066740;28;20000;-68
2022/10/03 02:19:06;;;;;;;;;;;;;;;;;;5068170;28;20330;-67
2022/10/03 02:21:31;;;;;;;;;;;;;;;;;;5063187;28;20003;-67
2022/10/03 02:23:56;;;;;;;;;;;;;;;;;;5068984;28;19923;-67
2022/10/03 02:26:21;;;;;;;;;;;;;;;;;;5071831;28;19936;-67
2022/10/03 02:28:47;;;;;;;;;;;;;;;;;;5069330;28;19919;-67
2022/10/03 02:31:12;;;;;;;;;;;;;;;;;;5062484;28;20417;-67
2022/10/03 02:33:37;;;;;;;;;;;;;;;;;;5071633;28;19913;-67
2022/10/03 02:36:03;;;;;;;;;;;;;;;;;;5070147;28;20367;-67
2022/10/03 02:38:28;;;;;;;;;;;;;;;;;;5071185;28;19944;-67
2022/10/03 02:40:54;;;;;;;;;;;;;;;;;;5069951;28;19951;-67
2022/10/03 02:43:20;;;;;;;;;;;;;;;;;;5071566;28;19916;-67
2022/10/03 02:45:45;;;;;;;;;;;;;;;;;;5064530;28;19944;-67
2022/10/03 02:48:11;;;;;;;;;;;;;;;;;;5071417;28;20300;-67
2022/10/03 02:50:36;;;;;;;;;;;;;;;;;;5067478;28;19919;-68
2022/10/03 02:53:01;;;;;;;;;;;;;;;;;;5067204;28;19912;-68
2022/10/03 02:55:26;;;;;;;;;;;;;;;;;;5067696;28;19916;-68
2022/10/03 02:57:52;;;;;;;;;;;;;;;;;;5072791;28;19922;-68
2022/10/03 03:00:17;;;;;;;;;;;;;;;;;;5066671;28;20368;-68
2022/10/03 03:02:42;;;;;;;;;;;;;;;;;;5066692;28;19913;-68
2022/10/03 03:05:07;;;;;;;;;;;;;;;;;;5070040;28;20006;-68
2022/10/03 03:07:35;;;;;;;;;;;;;;;;;;5070080;28;20010;-68
2022/10/03 03:10:01;;;;;;;;;;;;;;;;;;5066722;28;20036;-68
2022/10/03 03:12:26;;;;;;;;;;;;;;;;;;5069915;28;20352;-68
2022/10/03 03:14:51;;;;;;;;;;;;;;;;;;5069820;28;19970;-68
2022/10/03 03:17:16;;;;;;;;;;;;;;;;;;5064277;28;19927;-68
2022/10/03 03:19:41;;;;;;;;;;;;;;;;;;5067805;28;19912;-68
2022/10/03 03:22:09;;;;;;;;;;;;;;;;;;5067774;28;19912;-68
2022/10/03 03:24:35;;;;;;;;;;;;;;;;;;5063807;28;19916;-68
2022/10/03 03:27:00;;;;;;;;;;;;;;;;;;5067679;28;20280;-68
2022/10/03 03:29:25;;;;;;;;;;;;;;;;;;5068229;28;20303;-68
2022/10/03 03:31:50;;;;;;;;;;;;;;;;;;5063483;28;19913;-68
2022/10/03 03:34:16;;;;;;;;;;;;;;;;;;5064606;28;19937;-68
2022/10/03 03:36:41;;;;;;;;;;;;;;;;;;5067047;28;19917;-67
2022/10/03 03:39:06;;;;;;;;;;;;;;;;;;5067762;28;20386;-68
2022/10/03 03:41:31;;;;;;;;;;;;;;;;;;5070611;28;19908;-67
2022/10/03 03:43:56;;;;;;;;;;;;;;;;;;5064782;28;19914;-67
2022/10/03 03:46:22;;;;;;;;;;;;;;;;;;5068331;28;19920;-67
2022/10/03 03:48:47;;;;;;;;;;;;;;;;;;5067666;28;20289;-68
2022/10/03 03:51:13;;;;;;;;;;;;;;;;;;5072311;28;19999;-68
2022/10/03 03:53:38;;;;;;;;;;;;;;;;;;5062883;28;19913;-67
2022/10/03 03:56:03;;;;;;;;;;;;;;;;;;5065074;28;20007;-68
2022/10/03 03:58:31;;;;;;;;;;;;;;;;;;5071964;28;20369;-68
2022/10/03 04:00:56;;;;;;;;;;;;;;;;;;5063971;28;19934;-68
2022/10/03 04:03:21;;;;;;;;;;;;;;;;;;5065257;28;20416;-67
2022/10/03 04:05:46;;;;;;;;;;;;;;;;;;5073857;28;19912;-67
2022/10/03 04:08:11;;;;;;;;;;;;;;;;;;5072547;28;19912;-68
2022/10/03 04:10:37;;;;;;;;;;;;;;;;;;5068479;28;19916;-68
2022/10/03 04:13:02;;;;;;;;;;;;;;;;;;5076182;28;20372;-68
2022/10/03 04:15:27;;;;;;;;;;;;;;;;;;5069408;28;19916;-68
2022/10/03 04:20:36;;;;;;;;;;;;;;;;;;5073832;28;19920;-68
2022/10/03 04:23:01;;;;;;;;;;;;;;;;;;5066546;28;19936;-68
2022/10/03 04:25:26;;;;;;;;;;;;;;;;;;5072959;28;19916;-69
2022/10/03 04:27:51;;;;;;;;;;;;;;;;;;5071428;28;19913;-68
2022/10/03 04:30:16;;;;;;;;;;;;;;;;;;5073634;28;19916;-68
2022/10/03 04:32:41;;;;;;;;;;;;;;;;;;5070498;28;19919;-68
2022/10/03 04:35:07;;;;;;;;;;;;;;;;;;5070226;28;19917;-68
2022/10/03 04:37:32;;;;;;;;;;;;;;;;;;5070142;28;19923;-68
2022/10/03 04:39:57;;;;;;;;;;;;;;;;;;5070578;28;20364;-68
2022/10/03 04:42:25;;;;;;;;;;;;;;;;;;5070524;28;19917;-68
2022/10/03 04:44:51;;;;;;;;;;;;;;;;;;5072449;28;19943;-68
2022/10/03 04:47:16;;;;;;;;;;;;;;;;;;5068892;28;19948;-68
2022/10/03 04:49:41;;;;;;;;;;;;;;;;;;5072976;28;19908;-68
2022/10/03 04:52:06;;;;;;;;;;;;;;;;;;5066236;28;19912;-68
2022/10/03 04:54:31;;;;;;;;;;;;;;;;;;5076190;28;19913;-68
2022/10/03 04:56:56;;;;;;;;;;;;;;;;;;5062468;28;19916;-68
2022/10/03 04:59:21;;;;;;;;;;;;;;;;;;5068929;28;20283;-68
2022/10/03 05:01:47;;;;;;;;;;;;;;;;;;5067818;28;19921;-68
2022/10/03 05:04:12;;;;;;;;;;;;;;;;;;5070770;28;20010;-68
2022/10/03 05:06:37;;;;;;;;;;;;;;;;;;5064607;28;19982;-68
2022/10/03 05:09:03;;;;;;;;;;;;;;;;;;5070442;28;20379;-68
2022/10/03 05:11:28;;;;;;;;;;;;;;;;;;5066203;28;19924;-68
2022/10/03 05:13:53;;;;;;;;;;;;;;;;;;5069452;28;19923;-68
2022/10/03 05:16:20;;;;;;;;;;;;;;;;;;5070004;28;20420;-68
2022/10/03 05:18:45;;;;;;;;;;;;;;;;;;5067779;28;19923;-68
2022/10/03 05:21:11;;;;;;;;;;;;;;;;;;5069518;28;19916;-68
2022/10/03 05:23:36;;;;;;;;;;;;;;;;;;5069836;28;20299;-68
2022/10/03 05:26:01;;;;;;;;;;;;;;;;;;5070093;28;19917;-68
2022/10/03 05:28:27;;;;;;;;;;;;;;;;;;5068477;28;19923;-68
2022/10/03 05:30:53;;;;;;;;;;;;;;;;;;5071021;28;19913;-68
2022/10/03 05:33:18;;;;;;;;;;;;;;;;;;5072342;28;19923;-68
2022/10/03 05:35:43;;;;;;;;;;;;;;;;;;5066400;28;19917;-68
2022/10/03 05:38:08;;;;;;;;;;;;;;;;;;5071221;28;19912;-68
2022/10/03 05:40:33;;;;;;;;;;;;;;;;;;5069001;28;19923;-68
2022/10/03 05:42:58;;;;;;;;;;;;;;;;;;5072363;28;19995;-68
2022/10/03 05:45:23;;;;;;;;;;;;;;;;;;5066955;28;19952;-68
2022/10/03 05:47:49;;;;;;;;;;;;;;;;;;5064460;28;19952;-67
2022/10/03 05:50:14;;;;;;;;;;;;;;;;;;5068488;28;19923;-67
2022/10/03 05:52:40;;;;;;;;;;;;;;;;;;5071113;28;19917;-68
2022/10/03 05:55:05;;;;;;;;;;;;;;;;;;5063178;28;20043;-68
2022/10/03 05:57:30;;;;;;;;;;;;;;;;;;5061661;28;19928;-68
2022/10/03 05:59:55;;;;;;;;;;;;;;;;;;5067374;28;20360;-68
2022/10/03 06:02:20;;;;;;;;;;;;;;;;;;5069194;28;19913;-68
2022/10/03 06:04:45;;;;;;;;;;;;;;;;;;5068200;28;19913;-68
2022/10/03 06:07:11;;;;;;;;;;;;;;;;;;5067223;28;19912;-68
2022/10/03 06:09:36;;;;;;;;;;;;;;;;;;5067599;28;19917;-68
2022/10/03 06:12:01;;;;;;;;;;;;;;;;;;5071847;28;19913;-68
2022/10/03 06:14:26;;;;;;;;;;;;;;;;;;5064698;28;20396;-67
2022/10/03 06:16:51;;;;;;;;;;;;;;;;;;5069389;28;19963;-67
2022/10/03 06:19:16;;;;;;;;;;;;;;;;;;5069902;28;19966;-68
2022/10/03 06:21:41;;;;;;;;;;;;;;;;;;5069086;28;19920;-68
2022/10/03 06:24:07;;;;;;;;;;;;;;;;;;5068461;28;19921;-68
2022/10/03 06:26:34;;;;;;;;;;;;;;;;;;5067026;28;20426;-68
2022/10/03 06:29:00;;;;;;;;;;;;;;;;;;5072751;28;19912;-68
2022/10/03 06:31:25;;;;;;;;;;;;;;;;;;5063109;28;20048;-68
2022/10/03 06:33:50;;;;;;;;;;;;;;;;;;5070007;28;19916;-68
2022/10/03 06:36:15;;;;;;;;;;;;;;;;;;5071949;28;19919;-68
2022/10/03 06:38:41;;;;;;;;;;;;;;;;;;5066851;28;19916;-68
2022/10/03 06:41:06;;;;;;;;;;;;;;;;;;5072139;28;19916;-68
2022/10/03 06:43:31;;;;;;;;;;;;;;;;;;5069842;28;20631;-68
2022/10/03 06:45:57;;;;;;;;;;;;;;;;;;5068473;28;19916;-68
2022/10/03 06:48:22;;;;;;;;;;;;;;;;;;5065238;28;19916;-67
2022/10/03 06:50:47;;;;;;;;;;;;;;;;;;5071264;28;19999;-68
2022/10/03 06:53:12;;;;;;;;;;;;;;;;;;5070779;28;20527;-68
2022/10/03 06:55:37;;;;;;;;;;;;;;;;;;5068159;28;19908;-67
2022/10/03 06:58:03;;;;;;;;;;;;;;;;;;5072736;28;19986;-68
2022/10/03 07:00:28;;;;;;;;;;;;;;;;;;5064731;28;19921;-67
2022/10/03 07:02:53;;;;;;;;;;;;;;;;;;5062644;28;19920;-68
2022/10/03 07:05:18;;;;;;;;;;;;;;;;;;5070390;28;19965;-68
2022/10/03 07:07:44;;;;;;;;;;;;;;;;;;5069696;28;20029;-68
2022/10/03 07:10:09;;;;;;;;;;;;;;;;;;5091440;28;19920;-68
2022/10/03 07:12:34;;;;;;;;;;;;;;;;;;5087510;28;19991;-68
2022/10/03 07:15:00;;;;;;;;;;;;;;;;;;5087750;28;19920;-67
2022/10/03 07:17:27;;;;;;;;;;;;;;;;;;5082937;28;19927;-67
2022/10/03 07:19:52;;;;;;;;;;;;;;;;;;5084123;28;19911;-67
2022/10/03 07:22:18;;;;;;;;;;;;;;;;;;5087062;28;19912;-68
2022/10/03 07:24:43;;;;;;;;;;;;;;;;;;5084109;28;19927;-67
2022/10/03 07:27:08;;;;;;;;;;;;;;;;;;5090203;28;19916;-68
2022/10/03 07:29:34;;;;;;;;;;;;;;;;;;5088611;28;19955;-67
2022/10/03 07:31:59;;;;;;;;;;;;;;;;;;5073618;28;19916;-68
2022/10/03 07:34:24;;;;;;;;;;;;;;;;;;5081669;28;20287;-67
2022/10/03 07:39:33;;;;;;;;;;;;;;;;;;5083878;28;19923;-67
2022/10/03 07:41:59;;;;;;;;;;;;;;;;;;5083213;28;19920;-69
2022/10/03 07:44:27;;;;;;;;;;;;;;;;;;5081073;28;19920;-68
2022/10/03 07:46:52;;;;;;;;;;;;;;;;;;5081230;28;19957;-67
2022/10/03 07:49:17;;;;;;;;;;;;;;;;;;5080414;28;20383;-67
2022/10/03 07:51:43;;;;;;;;;;;;;;;;;;5076927;28;19916;-68
2022/10/03 07:54:08;;;;;;;;;;;;;;;;;;5084621;28;19920;-67
2022/10/03 07:56:33;;;;;;;;;;;;;;;;;;5082462;28;20035;-68
2022/10/03 07:58:58;;;;;;;;;;;;;;;;;;5082821;28;20010;-68
2022/10/03 08:01:24;;;;;;;;;;;;;;;;;;5078664;28;19927;-67
2022/10/03 08:03:49;;;;;;;;;;;;;;;;;;5085656;28;19966;-67
2022/10/03 08:06:14;;;;;;;;;;;;;;;;;;5084258;28;19920;-68
2022/10/03 08:08:39;;;;;;;;;;;;;;;;;;5085039;28;19942;-68
2022/10/03 08:11:05;;;;;;;;;;;;;;;;;;5083944;28;19983;-67
2022/10/03 08:13:30;;;;;;;;;;;;;;;;;;5083105;28;19960;-68
2022/10/03 08:15:55;;;;;;;;;;;;;;;;;;5080823;28;20042;-67
2022/10/03 08:18:20;;;;;;;;;;;;;;;;;;5085072;28;20016;-67
2022/10/03 08:20:46;;;;;;;;;;;;;;;;;;5084474;28;19951;-67
2022/10/03 08:23:11;;;;;;;;;;;;;;;;;;5081250;28;20003;-68
2022/10/03 08:25:36;;;;;;;;;;;;;;;;;;5072765;28;19923;-67
2022/10/03 08:28:02;;;;;;;;;;;;;;;;;;5080470;28;19916;-67
2022/10/03 08:30:27;;;;;;;;;;;;;;;;;;5081427;28;19999;-68
2022/10/03 08:32:52;;;;;;;;;;;;;;;;;;5078997;28;20026;-67
2022/10/03 08:35:18;;;;;;;;;;;;;;;;;;5083182;28;19973;-67
2022/10/03 08:37:43;;;;;;;;;;;;;;;;;;5083702;28;19927;-67
2022/10/03 08:40:10;;;;;;;;;;;;;;;;;;5079488;28;19912;-68
2022/10/03 08:42:35;;;;;;;;;;;;;;;;;;5085876;28;19959;-67
2022/10/03 08:45:00;;;;;;;;;;;;;;;;;;5078089;28;19921;-67
2022/10/03 08:47:25;;;;;;;;;;;;;;;;;;5083414;28;19920;-67
2022/10/03 08:49:50;;;;;;;;;;;;;;;;;;5084776;28;20461;-67
2022/10/03 08:52:16;;;;;;;;;;;;;;;;;;5084815;28;19972;-67
2022/10/03 08:54:42;;;;;;;;;;;;;;;;;;5086536;28;19931;-67
2022/10/03 08:57:07;;;;;;;;;;;;;;;;;;5087652;28;20271;-67
2022/10/03 08:59:32;;;;;;;;;;;;;;;;;;5089816;28;19932;-68
2022/10/03 09:01:57;;;;;;;;;;;;;;;;;;5088007;28;20003;-67
2022/10/03 09:04:23;;;;;;;;;;;;;;;;;;5080010;28;20364;-67
2022/10/03 09:06:48;;;;;;;;;;;;;;;;;;5084968;28;19923;-67
2022/10/03 09:09:13;;;;;;;;;;;;;;;;;;5091683;28;19916;-68
2022/10/03 09:11:39;;;;;;;;;;;;;;;;;;5089295;28;19927;-67
2022/10/03 09:14:05;;;;;;;;;;;;;;;;;;5090359;28;19913;-67
2022/10/03 09:16:30;;;;;;;;;;;;;;;;;;5081646;28;19931;-67
2022/10/03 09:18:55;;;;;;;;;;;;;;;;;;5091058;28;20426;-67
2022/10/03 09:21:20;;;;;;;;;;;;;;;;;;5092929;28;19959;-68
2022/10/03 09:23:45;;;;;;;;;;;;;;;;;;5091067;28;20001;-68
2022/10/03 09:26:10;;;;;;;;;;;;;;;;;;5089373;28;19912;-68
2022/10/03 09:28:35;;;;;;;;;;;;;;;;;;5088190;28;19912;-68
2022/10/03 09:31:02;;;;;;;;;;;;;;;;;;5096262;28;19958;-68
2022/10/03 09:33:27;;;;;;;;;;;;;;;;;;5088717;28;19916;-68
2022/10/03 09:35:53;;;;;;;;;;;;;;;;;;5095885;28;19916;-69
2022/10/03 09:38:18;;;;;;;;;;;;;;;;;;5091669;28;19916;-69
2022/10/03 09:40:43;;;;;;;;;;;;;;;;;;5089270;28;19916;-69
2022/10/03 09:43:08;;;;;;;;;;;;;;;;;;5094138;28;19982;-68
2022/10/03 09:45:33;;;;;;;;;;;;;;;;;;5092415;28;19912;-68
2022/10/03 09:47:58;;;;;;;;;;;;;;;;;;5092662;28;19963;-68
2022/10/03 09:50:24;;;;;;;;;;;;;;;;;;5094154;28;19923;-69
2022/10/03 09:52:49;;;;;;;;;;;;;;;;;;5092748;28;19912;-68
2022/10/03 09:55:14;;;;;;;;;;;;;;;;;;5093233;28;20784;-68
2022/10/03 09:57:40;;;;;;;;;;;;;;;;;;5091423;28;19920;-69
2022/10/03 10:00:06;;;;;;;;;;;;;;;;;;5092456;28;19908;-68
2022/10/03 10:02:32;;;;;;;;;;;;;;;;;;5095845;28;19987;-68
2022/10/03 10:04:57;;;;;;;;;;;;;;;;;;5091738;28;19908;-68
2022/10/03 10:07:22;;;;;;;;;;;;;;;;;;5093677;28;20050;-68
2022/10/03 10:09:47;;;;;;;;;;;;;;;;;;5091936;28;19963;-68
2022/10/03 10:12:12;;;;;;;;;;;;;;;;;;5090118;28;19920;-68
2022/10/03 10:14:37;;;;;;;;;;;;;;;;;;5090817;28;19916;-68
2022/10/03 10:17:02;;;;;;;;;;;;;;;;;;5090384;28;19922;-69
2022/10/03 10:19:27;;;;;;;;;;;;;;;;;;5092802;28;19996;-68
2022/10/03 10:21:53;;;;;;;;;;;;;;;;;;5092589;28;20327;-68
2022/10/03 10:24:18;;;;;;;;;;;;;;;;;;5091937;28;19931;-68
2022/10/03 10:26:43;;;;;;;;;;;;;;;;;;5095857;28;20307;-69
2022/10/03 10:29:08;;;;;;;;;;;;;;;;;;5093719;28;19922;-68
2022/10/03 10:31:33;;;;;;;;;;;;;;;;;;5089576;28;19916;-68
2022/10/03 10:33:58;;;;;;;;;;;;;;;;;;5091805;28;20278;-69
2022/10/03 10:36:23;;;;;;;;;;;;;;;;;;5091293;28;20463;-68
2022/10/03 10:38:48;;;;;;;;;;;;;;;;;;5097451;28;20386;-69
2022/10/03 10:41:14;;;;;;;;;;;;;;;;;;5090050;28;19916;-69
2022/10/03 10:43:39;;;;;;;;;;;;;;;;;;5095448;28;19915;-69
2022/10/03 10:46:04;;;;;;;;;;;;;;;;;;5095545;28;19965;-70
2022/10/03 10:48:29;;;;;;;;;;;;;;;;;;5086471;28;20058;-69
2022/10/03 10:50:54;;;;;;;;;;;;;;;;;;5091332;28;19908;-68
2022/10/03 10:53:20;;;;;;;;;;;;;;;;;;5093405;28;19965;-68
2022/10/03 10:55:45;;;;;;;;;;;;;;;;;;5089252;28;20373;-68
2022/10/03 10:58:10;;;;;;;;;;;;;;;;;;5091123;28;19923;-68
2022/10/03 11:00:35;;;;;;;;;;;;;;;;;;5090980;28;19908;-68
2022/10/03 11:03:00;;;;;;;;;;;;;;;;;;5092756;28;19919;-68
2022/10/03 11:05:28;;;;;;;;;;;;;;;;;;5087938;28;19920;-68
2022/10/03 11:07:54;;;;;;;;;;;;;;;;;;5085394;28;19920;-69
2022/10/03 11:10:19;;;;;;;;;;;;;;;;;;5077275;28;19931;-68
2022/10/03 11:12:45;;;;;;;;;;;;;;;;;;5073908;28;19926;-68
2022/10/03 11:15:10;;;;;;;;;;;;;;;;;;5068267;28;19924;-69
2022/10/03 11:17:36;;;;;;;;;;;;;;;;;;5069113;28;19959;-69
2022/10/03 11:20:02;;;;;;;;;;;;;;;;;;5083516;28;19916;-69
2022/10/03 11:22:27;;;;;;;;;;;;;;;;;;5088445;28;19912;-68
2022/10/03 11:24:52;;;;;;;;;;;;;;;;;;5090738;28;20007;-69
2022/10/03 11:27:17;;;;;;;;;;;;;;;;;;5086399;28;20030;-69
2022/10/03 11:29:42;;;;;;;;;;;;;;;;;;5088319;28;20035;-69
2022/10/03 11:32:08;;;;;;;;;;;;;;;;;;5078869;28;20003;-68
2022/10/03 11:34:33;;;;;;;;;;;;;;;;;;5070306;28;20115;-68
2022/10/03 11:36:58;;;;;;;;;;;;;;;;;;5073844;28;19919;-68
2022/10/03 11:39:23;;;;;;;;;;;;;;;;;;5074803;28;19920;-69
2022/10/03 11:41:48;;;;;;;;;;;;;;;;;;5071172;28;20368;-68
2022/10/03 11:44:14;;;;;;;;;;;;;;;;;;5085071;28;19926;-68
2022/10/03 11:46:39;;;;;;;;;;;;;;;;;;5089166;28;19916;-68
2022/10/03 11:49:04;;;;;;;;;;;;;;;;;;5087427;28;19974;-68
2022/10/03 11:51:29;;;;;;;;;;;;;;;;;;5091984;28;20014;-68
2022/10/03 11:53:55;;;;;;;;;;;;;;;;;;5089212;28;20015;-68
2022/10/03 11:56:20;;;;;;;;;;;;;;;;;;5078814;28;19944;-69
2022/10/03 11:58:45;;;;;;;;;;;;;;;;;;5086239;28;20446;-69
2022/10/03 12:01:11;;;;;;;;;;;;;;;;;;5089422;28;19920;-69
2022/10/03 12:03:36;;;;;;;;;;;;;;;;;;5087053;28;19913;-69
2022/10/03 12:08:54;;;;;;;;;;;;;;;;;;5088663;28;19919;-68
2022/10/03 12:11:20;;;;;;;;;;;;;;;;;;5086039;28;19912;-68
2022/10/03 12:13:46;;;;;;;;;;;;;;;;;;5087638;28;19919;-68
2022/10/03 12:16:11;;;;;;;;;;;;;;;;;;5090863;28;19916;-68
2022/10/03 12:18:36;;;;;;;;;;;;;;;;;;5089147;28;19916;-69
2022/10/03 12:21:01;;;;;;;;;;;;;;;;;;5086641;28;19912;-68
2022/10/03 12:23:26;;;;;;;;;;;;;;;;;;5074605;28;19998;-68
2022/10/03 12:25:52;;;;;;;;;;;;;;;;;;5070775;28;19924;-68
2022/10/03 12:28:19;;;;;;;;;;;;;;;;;;5090519;28;19968;-68
2022/10/03 12:30:44;;;;;;;;;;;;;;;;;;5089739;28;19917;-68
2022/10/03 12:33:09;;;;;;;;;;;;;;;;;;5093688;28;19959;-68
2022/10/03 12:35:34;;;;;;;;;;;;;;;;;;5090384;28;19916;-67
2022/10/03 12:37:59;;;;;;;;;;;;;;;;;;5089577;28;19947;-68
2022/10/03 12:40:25;;;;;;;;;;;;;;;;;;5079349;28;20593;-68
2022/10/03 12:42:50;;;;;;;;;;;;;;;;;;5070535;28;19917;-69
2022/10/03 12:45:15;;;;;;;;;;;;;;;;;;5071409;28;21938;-68
2022/10/03 12:47:41;;;;;;;;;;;;;;;;;;5068223;28;20269;-68
2022/10/03 12:50:06;;;;;;;;;;;;;;;;;;5083397;28;19912;-68
2022/10/03 12:52:32;;;;;;;;;;;;;;;;;;5084997;28;19912;-69
2022/10/03 12:54:57;;;;;;;;;;;;;;;;;;5090493;28;20248;-68
2022/10/03 12:57:22;;;;;;;;;;;;;;;;;;5082359;28;20330;-68
2022/10/03 12:59:47;;;;;;;;;;;;;;;;;;5074633;28;20348;-68
2022/10/03 13:02:12;;;;;;;;;;;;;;;;;;5082504;28;20365;-68
2022/10/03 13:04:38;;;;;;;;;;;;;;;;;;5080052;28;19959;-69
2022/10/03 13:07:04;;;;;;;;;;;;;;;;;;5081399;28;19916;-68
2022/10/03 13:09:29;;;;;;;;;;;;;;;;;;5092444;28;19923;-69
2022/10/03 13:11:55;;;;;;;;;;;;;;;;;;5090086;28;19912;-69
2022/10/03 13:14:20;;;;;;;;;;;;;;;;;;5094102;28;19921;-69
2022/10/03 13:16:46;;;;;;;;;;;;;;;;;;5086113;28;19944;-69
2022/10/03 13:19:11;;;;;;;;;;;;;;;;;;5090113;28;19923;-69
2022/10/03 13:21:37;;;;;;;;;;;;;;;;;;5091544;28;19912;-69
2022/10/03 13:24:03;;;;;;;;;;;;;;;;;;5074721;28;19912;-68
2022/10/03 13:26:28;;;;;;;;;;;;;;;;;;5076777;28;19922;-69
2022/10/03 13:28:53;;;;;;;;;;;;;;;;;;5077343;28;20041;-68
2022/10/03 13:31:19;;;;;;;;;;;;;;;;;;5079964;28;19978;-68
2022/10/03 13:33:44;;;;;;;;;;;;;;;;;;5089655;28;19975;-69
2022/10/03 13:36:11;;;;;;;;;;;;;;;;;;5090838;28;19912;-69
2022/10/03 13:38:37;;;;;;;;;;;;;;;;;;5090701;28;20030;-69
2022/10/03 13:41:02;;;;;;;;;;;;;;;;;;5083972;28;19927;-69
2022/10/03 13:43:28;;;;;;;;;;;;;;;;;;5077552;28;20265;-69
2022/10/03 13:45:57;;;;;;;;;;;;;;;;;;5096418;28;20380;-68
2022/10/03 13:48:22;;;;;;;;;;;;;;;;;;5090909;28;19918;-69
2022/10/03 13:50:47;;;;;;;;;;;;;;;;;;5088142;28;20010;-69
2022/10/03 13:53:12;;;;;;;;;;;;;;;;;;5089071;28;19927;-69
2022/10/03 13:55:38;;;;;;;;;;;;;;;;;;5082507;28;19913;-68
2022/10/03 13:58:04;;;;;;;;;;;;;;;;;;5092831;28;19942;-69
2022/10/03 14:00:29;;;;;;;;;;;;;;;;;;5086950;28;19917;-71
2022/10/03 14:02:56;;;;;;;;;;;;;;;;;;5092783;28;19920;-69
2022/10/03 14:05:21;;;;;;;;;;;;;;;;;;5095554;28;19965;-69
2022/10/03 14:07:46;;;;;;;;;;;;;;;;;;5095593;28;19915;-69
2022/10/03 14:10:12;;;;;;;;;;;;;;;;;;5089541;28;20089;-68
2022/10/03 14:12:37;;;;;;;;;;;;;;;;;;5096527;28;19933;-68
2022/10/03 14:15:03;;;;;;;;;;;;;;;;;;5080302;28;20007;-69
2022/10/03 14:17:28;;;;;;;;;;;;;;;;;;5093345;28;20014;-69
2022/10/03 14:19:53;;;;;;;;;;;;;;;;;;5089729;28;19961;-68
2022/10/03 14:22:18;;;;;;;;;;;;;;;;;;5081013;28;20376;-68
2022/10/03 14:24:43;;;;;;;;;;;;;;;;;;5089431;28;19916;-68
2022/10/03 14:27:08;;;;;;;;;;;;;;;;;;5092739;28;19908;-69
2022/10/03 14:29:33;;;;;;;;;;;;;;;;;;5083690;28;19912;-68
2022/10/03 14:31:58;;;;;;;;;;;;;;;;;;5089042;28;19999;-68
2022/10/03 14:34:23;;;;;;;;;;;;;;;;;;5090922;28;19963;-69
2022/10/03 14:36:49;;;;;;;;;;;;;;;;;;5081714;28;19909;-69
2022/10/03 14:39:14;;;;;;;;;;;;;;;;;;5078663;28;20422;-69
2022/10/03 14:41:39;;;;;;;;;;;;;;;;;;5087686;28;20363;-68
2022/10/03 14:44:04;;;;;;;;;;;;;;;;;;5096249;28;19922;-68
2022/10/03 14:46:29;;;;;;;;;;;;;;;;;;5080638;28;20004;-68
2022/10/03 14:48:54;;;;;;;;;;;;;;;;;;5071729;28;19944;-68
2022/10/03 14:51:19;;;;;;;;;;;;;;;;;;5078380;28;19966;-68
2022/10/03 14:53:44;;;;;;;;;;;;;;;;;;5088580;28;19913;-68
2022/10/03 14:56:10;;;;;;;;;;;;;;;;;;5084627;28;20348;-68
2022/10/03 14:58:35;;;;;;;;;;;;;;;;;;5072536;28;19943;-68
2022/10/03 15:01:00;;;;;;;;;;;;;;;;;;5077984;28;19962;-68
2022/10/03 15:03:25;;;;;;;;;;;;;;;;;;5085537;28;19908;-69
2022/10/03 15:05:51;;;;;;;;;;;;;;;;;;5077693;28;19920;-68
2022/10/03 15:08:16;;;;;;;;;;;;;;;;;;5071844;28;20010;-68
2022/10/03 15:10:41;;;;;;;;;;;;;;;;;;5071825;28;19956;-68
2022/10/03 15:13:08;;;;;;;;;;;;;;;;;;5077444;28;20323;-68
2022/10/03 15:15:34;;;;;;;;;;;;;;;;;;5079746;28;20548;-67
2022/10/03 15:18:01;;;;;;;;;;;;;;;;;;5085673;28;19920;-68
2022/10/03 15:20:29;;;;;;;;;;;;;;;;;;5089859;28;19915;-68
2022/10/03 15:22:59;;;;;;;;;;;;;;;;;;5068576;28;21478;-68
2022/10/03 15:25:24;;;;;;;;;;;;;;;;;;5075696;28;19921;-68
2022/10/03 15:27:49;;;;;;;;;;;;;;;;;;5080144;28;19920;-68
2022/10/03 15:30:14;;;;;;;;;;;;;;;;;;5079113;28;19928;-68
2022/10/03 15:32:41;;;;;;;;;;;;;;;;;;5081853;28;19920;-67
2022/10/03 15:35:06;;;;;;;;;;;;;;;;;;5079236;28;20036;-68
2022/10/03 15:37:34;;;;;;;;;;;;;;;;;;5081770;28;20427;-68
2022/10/03 15:39:59;;;;;;;;;;;;;;;;;;5080860;28;20058;-68
2022/10/03 15:42:24;;;;;;;;;;;;;;;;;;5075782;28;20719;-68
2022/10/03 15:44:50;;;;;;;;;;;;;;;;;;5069662;28;19927;-68
2022/10/03 15:47:15;;;;;;;;;;;;;;;;;;5073279;28;20474;-68
2022/10/03 15:49:40;;;;;;;;;;;;;;;;;;5075703;28;19923;-68
2022/10/03 15:52:05;;;;;;;;;;;;;;;;;;5068636;28;19917;-68
2022/10/03 15:54:35;;;;;;;;;;;;;;;;;;5093022;28;19916;-67
2022/10/03 15:57:00;;;;;;;;;;;;;;;;;;5082492;28;19951;-67
2022/10/03 15:59:26;;;;;;;;;;;;;;;;;;5077144;28;20002;-67
2022/10/03 16:01:53;;;;;;;;;;;;;;;;;;5068135;28;20471;-67
2022/10/03 16:04:18;;;;;;;;;;;;;;;;;;5072998;28;19954;-67
2022/10/03 16:06:46;;;;;;;;;;;;;;;;;;5074056;28;19951;-67
2022/10/03 16:09:11;;;;;;;;;;;;;;;;;;5092301;28;19916;-67
2022/10/03 16:11:36;;;;;;;;;;;;;;;;;;5084118;28;20374;-67
2022/10/03 16:14:01;;;;;;;;;;;;;;;;;;5087654;28;20054;-67
2022/10/03 16:16:27;;;;;;;;;;;;;;;;;;5085977;28;19920;-67
2022/10/03 16:18:52;;;;;;;;;;;;;;;;;;5109231;28;19927;-67
2022/10/03 16:21:17;;;;;;;;;;;;;;;;;;5091715;28;19923;-67
2022/10/03 16:23:44;;;;;;;;;;;;;;;;;;5077636;28;19923;-67
2022/10/03 16:26:09;;;;;;;;;;;;;;;;;;5096796;28;19972;-67
2022/10/03 16:28:34;;;;;;;;;;;;;;;;;;5072289;28;19959;-67
2022/10/03 16:30:59;;;;;;;;;;;;;;;;;;5084182;28;19943;-67
2022/10/03 16:33:26;;;;;;;;;;;;;;;;;;5091447;28;19955;-67
2022/10/03 16:35:51;;;;;;;;;;;;;;;;;;5083363;28;19917;-67
2022/10/03 16:38:16;;;;;;;;;;;;;;;;;;5075712;28;19931;-67
2022/10/03 16:40:41;;;;;;;;;;;;;;;;;;5091241;28;19931;-67
2022/10/03 16:43:08;;;;;;;;;;;;;;;;;;5085515;28;20383;-67